Wetterstation Vordersexau
Wetterdaten: Woche 12.09.16 - 18.09.16 (KW37)
Datum Zeit Temp. A. Feuchte A. Luftdruck Regen Wind Richtung Taupunkt Windchill Windben
12.09.2016 00:00 17,3 C 80 % 1014,8 hPa 0,0 l/m 0,0 km/h O-SO 13,8 C 17,3 C 0,0 km/h
12.09.2016 01:00 16,4 C 81 % 1014,7 hPa 0,0 l/m 0,0 km/h O 13,1 C 16,4 C 0,0 km/h
12.09.2016 02:00 15,8 C 82 % 1014,7 hPa 0,0 l/m 0,0 km/h O-SO 12,7 C 15,8 C 0,0 km/h
12.09.2016 03:00 15,3 C 82 % 1014,5 hPa 0,0 l/m 0,0 km/h NO 12,2 C 15,3 C 0,0 km/h
12.09.2016 04:00 14,9 C 83 % 1014,5 hPa 0,0 l/m 0,0 km/h NO 12,0 C 14,9 C 0,0 km/h
12.09.2016 05:00 14,1 C 82 % 1014,4 hPa 0,0 l/m 0,0 km/h NO 11,1 C 14,1 C 0,0 km/h
12.09.2016 06:00 13,8 C 82 % 1014,8 hPa 0,0 l/m 0,0 km/h NO 10,8 C 13,8 C 0,0 km/h
12.09.2016 07:00 13,9 C 82 % 1014,8 hPa 0,0 l/m 0,0 km/h NO 10,9 C 13,9 C 0,0 km/h
12.09.2016 08:00 14,9 C 80 % 1015,0 hPa 0,0 l/m 0,0 km/h NO 11,5 C 14,9 C 0,0 km/h
12.09.2016 09:00 19,2 C 79 % 1015,2 hPa 0,0 l/m 0,0 km/h O 15,5 C 19,2 C 0,0 km/h
12.09.2016 10:00 27,3 C 61 % 1015,3 hPa 0,0 l/m 0,0 km/h W-SW 19,1 C 27,3 C 0,0 km/h
12.09.2016 11:00 29,5 C 53 % 1015,2 hPa 0,0 l/m 1,3 km/h W 18,9 C 29,5 C 0,7 km/h
12.09.2016 12:00 31,4 C 48 % 1014,9 hPa 0,0 l/m 0,0 km/h W-SW 19,0 C 31,4 C 0,0 km/h
12.09.2016 13:00 33,8 C 43 % 1014,7 hPa 0,0 l/m 4,5 km/h S-SW 19,4 C 33,8 C 2,5 km/h
12.09.2016 14:00 33,5 C 43 % 1014,5 hPa 0,0 l/m 8,4 km/h W 19,2 C 33,5 C 4,7 km/h
12.09.2016 15:00 34,7 C 39 % 1013,9 hPa 0,0 l/m 16,2 km/h S-SW 18,7 C 34,7 C 9,0 km/h
12.09.2016 16:00 36,9 C 32 % 1013,8 hPa 0,0 l/m 7,1 km/h S-SW 17,4 C 36,9 C 4,0 km/h
12.09.2016 17:00 40,2 C 25 % 1013,3 hPa 0,0 l/m 0,0 km/h N 16,3 C 40,2 C 0,0 km/h
12.09.2016 18:00 37,5 C 26 % 1013,3 hPa 0,0 l/m 0,0 km/h W-NW 14,7 C 37,5 C 0,0 km/h
12.09.2016 19:00 25,8 C 49 % 1013,5 hPa 0,0 l/m 0,0 km/h W-NW 14,3 C 25,8 C 0,0 km/h
12.09.2016 20:00 21,4 C 60 % 1013,7 hPa 0,0 l/m 0,0 km/h SO 13,3 C 21,4 C 0,0 km/h
12.09.2016 21:00 19,6 C 68 % 1014,1 hPa 0,0 l/m 0,0 km/h O-SO 13,5 C 19,6 C 0,0 km/h
12.09.2016 22:00 18,7 C 71 % 1014,2 hPa 0,0 l/m 0,0 km/h O 13,3 C 18,7 C 0,0 km/h
12.09.2016 23:00 17,8 C 74 % 1014,3 hPa 0,0 l/m 0,0 km/h O-SO 13,1 C 17,8 C 0,0 km/h
13.09.2016 00:00 17,3 C 75 % 1014,3 hPa 0,0 l/m 0,0 km/h O-SO 12,8 C 17,3 C 0,0 km/h
13.09.2016 01:00 16,3 C 76 % 1014,3 hPa 0,0 l/m 0,0 km/h SO 12,1 C 16,3 C 0,0 km/h
13.09.2016 02:00 15,7 C 80 % 1014,0 hPa 0,0 l/m 0,0 km/h SO 12,3 C 15,7 C 0,0 km/h
13.09.2016 03:00 15,2 C 80 % 1013,9 hPa 0,0 l/m 0,0 km/h SO 11,8 C 15,2 C 0,0 km/h
13.09.2016 04:00 14,9 C 81 % 1013,5 hPa 0,0 l/m 0,0 km/h O-SO 11,7 C 14,9 C 0,0 km/h
13.09.2016 05:00 15,6 C 82 % 1013,4 hPa 0,0 l/m 0,0 km/h NO 12,5 C 15,6 C 0,0 km/h
13.09.2016 06:00 14,5 C 82 % 1013,2 hPa 0,0 l/m 0,0 km/h NO 11,5 C 14,5 C 0,0 km/h
13.09.2016 07:00 13,6 C 82 % 1013,6 hPa 0,0 l/m 0,0 km/h NO 10,6 C 13,6 C 0,0 km/h
13.09.2016 08:00 14,9 C 82 % 1014,0 hPa 0,0 l/m 0,0 km/h NO 11,9 C 14,9 C 0,0 km/h
13.09.2016 09:00 19,3 C 82 % 1013,9 hPa 0,0 l/m 0,0 km/h SO 16,1 C 19,3 C 0,0 km/h
13.09.2016 10:00 27,8 C 57 % 1013,9 hPa 0,0 l/m 0,0 km/h W 18,5 C 27,8 C 0,0 km/h
13.09.2016 11:00 30,0 C 51 % 1013,5 hPa 0,0 l/m 3,2 km/h W 18,7 C 30,0 C 1,8 km/h
13.09.2016 12:00 31,4 C 45 % 1012,9 hPa 0,0 l/m 0,0 km/h W 18,0 C 31,4 C 0,0 km/h
13.09.2016 13:00 33,4 C 42 % 1012,5 hPa 0,0 l/m 0,0 km/h W-NW 18,7 C 33,4 C 0,0 km/h
13.09.2016 14:00 34,5 C 40 % 1011,6 hPa 0,0 l/m 0,0 km/h W-SW 18,9 C 34,5 C 0,0 km/h
13.09.2016 15:00 35,9 C 38 % 1010,9 hPa 0,0 l/m 0,0 km/h W-NW 19,3 C 35,9 C 0,0 km/h
13.09.2016 16:00 36,6 C 36 % 1010,3 hPa 0,0 l/m 1,9 km/h N-NW 19,1 C 36,6 C 1,1 km/h
13.09.2016 17:00 37,0 C 34 % 1009,7 hPa 0,0 l/m 0,0 km/h W 18,5 C 37,0 C 0,0 km/h
13.09.2016 18:00 36,8 C 35 % 1009,4 hPa 0,0 l/m 0,0 km/h W 18,8 C 36,8 C 0,0 km/h
13.09.2016 19:00 31,8 C 42 % 1009,2 hPa 0,0 l/m 0,0 km/h W 17,3 C 31,8 C 0,0 km/h
13.09.2016 20:00 23,9 C 60 % 1009,3 hPa 0,0 l/m 0,0 km/h W 15,7 C 23,9 C 0,0 km/h
13.09.2016 21:00 21,1 C 70 % 1009,2 hPa 0,0 l/m 0,0 km/h O-NO 15,4 C 21,1 C 0,0 km/h
13.09.2016 22:00 20,1 C 74 % 1009,2 hPa 0,0 l/m 0,0 km/h O-NO 15,3 C 20,1 C 0,0 km/h
13.09.2016 23:00 18,4 C 79 % 1009,3 hPa 0,0 l/m 0,0 km/h O-NO 14,7 C 18,4 C 0,0 km/h
14.09.2016 00:00 17,9 C 80 % 1009,4 hPa 0,0 l/m 0,0 km/h NO 14,4 C 17,9 C 0,0 km/h
14.09.2016 01:00 17,3 C 80 % 1009,3 hPa 0,0 l/m 0,0 km/h NO 13,8 C 17,3 C 0,0 km/h
14.09.2016 02:00 16,3 C 80 % 1009,4 hPa 0,0 l/m 0,0 km/h NO 12,8 C 16,3 C 0,0 km/h
14.09.2016 03:00 15,6 C 82 % 1009,6 hPa 0,0 l/m 0,0 km/h NO 12,5 C 15,6 C 0,0 km/h
14.09.2016 04:00 15,2 C 82 % 1010,0 hPa 0,0 l/m 0,0 km/h NO 12,1 C 15,2 C 0,0 km/h
14.09.2016 05:00 14,8 C 83 % 1010,1 hPa 0,0 l/m 0,0 km/h NO 11,9 C 14,8 C 0,0 km/h
14.09.2016 06:00 14,5 C 83 % 1010,4 hPa 0,0 l/m 0,0 km/h NO 11,6 C 14,5 C 0,0 km/h
14.09.2016 07:00 15,1 C 82 % 1010,7 hPa 0,0 l/m 0,0 km/h N-NO 12,0 C 15,1 C 0,0 km/h
14.09.2016 08:00 16,4 C 82 % 1011,0 hPa 0,0 l/m 13,6 km/h O 13,3 C 13,3 C 7,6 km/h
14.09.2016 09:00 20,3 C 81 % 1011,2 hPa 0,0 l/m 0,0 km/h SO 16,9 C 20,3 C 0,0 km/h
14.09.2016 10:00 27,4 C 60 % 1011,2 hPa 0,0 l/m 0,0 km/h NW 18,9 C 27,4 C 0,0 km/h
14.09.2016 11:00 30,6 C 47 % 1011,1 hPa 0,0 l/m 3,9 km/h W-NW 18,0 C 30,6 C 2,2 km/h
14.09.2016 12:00 32,2 C 42 % 1010,9 hPa 0,0 l/m 0,0 km/h NW 17,6 C 32,2 C 0,0 km/h
14.09.2016 13:00 33,6 C 39 % 1010,5 hPa 0,0 l/m 1,3 km/h W-NW 17,7 C 33,6 C 0,7 km/h
14.09.2016 14:00 33,5 C 39 % 1009,6 hPa 0,0 l/m 0,0 km/h N-NO 17,6 C 33,5 C 0,0 km/h
14.09.2016 15:00 34,6 C 37 % 1009,0 hPa 0,0 l/m 14,3 km/h NW 17,7 C 34,6 C 7,9 km/h
14.09.2016 16:00 35,3 C 37 % 1008,5 hPa 0,0 l/m 1,9 km/h N 18,4 C 35,3 C 1,1 km/h
14.09.2016 17:00 35,8 C 36 % 1007,9 hPa 0,0 l/m 0,0 km/h NW 18,4 C 35,8 C 0,0 km/h
14.09.2016 18:00 34,5 C 37 % 1007,8 hPa 0,0 l/m 0,0 km/h N 17,7 C 34,5 C 0,0 km/h
14.09.2016 19:00 27,2 C 55 % 1008,2 hPa 0,0 l/m 16,2 km/h N-NO 17,4 C 25,8 C 9,0 km/h
14.09.2016 20:00 21,3 C 70 % 1008,1 hPa 0,0 l/m 0,0 km/h SO 15,6 C 21,3 C 0,0 km/h
14.09.2016 21:00 19,2 C 78 % 1007,9 hPa 0,0 l/m 0,0 km/h SO 15,3 C 19,2 C 0,0 km/h
14.09.2016 22:00 18,0 C 80 % 1007,7 hPa 0,0 l/m 0,0 km/h O-SO 14,5 C 18,0 C 0,0 km/h
14.09.2016 23:00 17,4 C 81 % 1007,0 hPa 0,0 l/m 0,0 km/h N-NO 14,1 C 17,4 C 0,0 km/h
15.09.2016 00:00 19,3 C 80 % 1006,5 hPa 0,0 l/m 17,5 km/h N-NO 15,8 C 15,8 C 9,7 km/h
15.09.2016 01:00 18,7 C 76 % 1006,3 hPa 0,0 l/m 0,0 km/h SO 14,4 C 18,7 C 0,0 km/h
15.09.2016 02:00 17,9 C 80 % 1006,2 hPa 0,0 l/m 1,9 km/h N 14,4 C 17,9 C 1,1 km/h
15.09.2016 03:00 17,2 C 80 % 1005,6 hPa 0,0 l/m 0,0 km/h N-NO 13,7 C 17,2 C 0,0 km/h
15.09.2016 04:00 16,8 C 82 % 1005,4 hPa 0,0 l/m 0,0 km/h N 13,7 C 16,8 C 0,0 km/h
15.09.2016 05:00 15,4 C 82 % 1005,8 hPa 0,0 l/m 0,0 km/h N 12,3 C 15,4 C 0,0 km/h
15.09.2016 06:00 14,1 C 82 % 1006,6 hPa 0,0 l/m 0,0 km/h O 11,1 C 14,1 C 0,0 km/h
15.09.2016 07:00 13,9 C 82 % 1007,0 hPa 0,0 l/m 0,0 km/h N-NO 10,9 C 13,9 C 0,0 km/h
15.09.2016 08:00 15,9 C 80 % 1008,0 hPa 0,0 l/m 9,7 km/h N-NO 12,5 C 14,2 C 5,4 km/h
15.09.2016 09:00 18,1 C 82 % 1008,5 hPa 0,0 l/m 0,0 km/h N 15,0 C 18,1 C 0,0 km/h
15.09.2016 10:00 21,1 C 76 % 1009,2 hPa 0,0 l/m 0,0 km/h W-NW 16,7 C 21,1 C 0,0 km/h
15.09.2016 11:00 20,6 C 74 % 1009,8 hPa 0,0 l/m 0,0 km/h W 15,8 C 20,6 C 0,0 km/h
15.09.2016 12:00 21,0 C 73 % 1010,4 hPa 0,0 l/m 0,0 km/h N-NO 16,0 C 21,0 C 0,0 km/h
15.09.2016 13:00 21,6 C 73 % 1009,8 hPa 0,0 l/m 0,6 km/h W 16,5 C 21,6 C 0,4 km/h
15.09.2016 14:00 21,6 C 72 % 1010,5 hPa 0,0 l/m 3,2 km/h N-NW 16,3 C 21,6 C 1,8 km/h
15.09.2016 15:00 22,2 C 69 % 1010,5 hPa 0,0 l/m 0,0 km/h W 16,2 C 22,2 C 0,0 km/h
15.09.2016 16:00 22,8 C 69 % 1010,5 hPa 0,0 l/m 3,9 km/h W 16,8 C 22,8 C 2,2 km/h
15.09.2016 17:00 21,9 C 69 % 1010,8 hPa 0,0 l/m 0,0 km/h W 15,9 C 21,9 C 0,0 km/h
15.09.2016 18:00 21,2 C 71 % 1010,8 hPa 0,0 l/m 0,0 km/h W-SW 15,7 C 21,2 C 0,0 km/h
15.09.2016 19:00 19,8 C 76 % 1011,0 hPa 0,0 l/m 0,0 km/h W-SW 15,4 C 19,8 C 0,0 km/h
15.09.2016 20:00 18,5 C 79 % 1011,8 hPa 0,0 l/m 0,0 km/h W-SW 14,8 C 18,5 C 0,0 km/h
15.09.2016 21:00 17,9 C 81 % 1012,4 hPa 0,0 l/m 0,0 km/h W-SW 14,6 C 17,9 C 0,0 km/h
15.09.2016 22:00 17,5 C 82 % 1013,0 hPa 0,0 l/m 0,0 km/h S 14,4 C 17,5 C 0,0 km/h
15.09.2016 23:00 16,6 C 82 % 1013,0 hPa 0,5 l/m 0,0 km/h S 13,5 C 16,6 C 0,0 km/h
16.09.2016 00:00 15,9 C 82 % 1013,1 hPa 0,0 l/m 0,0 km/h S 12,8 C 15,9 C 0,0 km/h
16.09.2016 01:00 16,2 C 81 % 1012,9 hPa 0,0 l/m 0,0 km/h W 12,9 C 16,2 C 0,0 km/h
16.09.2016 02:00 15,9 C 82 % 1012,8 hPa 0,0 l/m 0,0 km/h W 12,8 C 15,9 C 0,0 km/h
16.09.2016 03:00 13,9 C 82 % 1012,7 hPa 0,0 l/m 0,0 km/h W 10,9 C 13,9 C 0,0 km/h
16.09.2016 04:00 14,4 C 81 % 1012,4 hPa 0,0 l/m 0,0 km/h W 11,2 C 14,4 C 0,0 km/h
16.09.2016 05:00 14,4 C 81 % 1012,3 hPa 0,0 l/m 0,0 km/h W 11,2 C 14,4 C 0,0 km/h
16.09.2016 06:00 14,5 C 80 % 1012,3 hPa 0,0 l/m 0,0 km/h W 11,1 C 14,5 C 0,0 km/h
16.09.2016 07:00 14,4 C 80 % 1012,8 hPa 0,0 l/m 0,0 km/h NW 11,0 C 14,4 C 0,0 km/h
16.09.2016 08:00 14,4 C 79 % 1013,7 hPa 0,0 l/m 0,0 km/h W-NW 10,8 C 14,4 C 0,0 km/h
16.09.2016 09:00 15,1 C 77 % 1014,1 hPa 0,0 l/m 0,0 km/h S-SO 11,1 C 15,1 C 0,0 km/h
16.09.2016 10:00 16,9 C 83 % 1014,0 hPa 0,0 l/m 0,0 km/h W-SW 14,0 C 16,9 C 0,0 km/h
16.09.2016 11:00 16,8 C 79 % 1014,1 hPa 0,0 l/m 0,0 km/h W 13,1 C 16,8 C 0,0 km/h
16.09.2016 12:00 17,9 C 78 % 1013,9 hPa 0,0 l/m 0,0 km/h SO 14,0 C 17,9 C 0,0 km/h
16.09.2016 13:00 23,4 C 61 % 1013,5 hPa 0,0 l/m 0,0 km/h W-SW 15,4 C 23,4 C 0,0 km/h
16.09.2016 14:00 25,2 C 52 % 1013,2 hPa 0,0 l/m 0,0 km/h N 14,6 C 25,2 C 0,0 km/h
16.09.2016 15:00 22,9 C 56 % 1012,6 hPa 0,0 l/m 0,0 km/h S 13,6 C 22,9 C 0,0 km/h
16.09.2016 16:00 21,2 C 58 % 1012,2 hPa 0,0 l/m 0,0 km/h W 12,6 C 21,2 C 0,0 km/h
16.09.2016 17:00 19,5 C 62 % 1011,8 hPa 0,0 l/m 0,0 km/h W 12,0 C 19,5 C 0,0 km/h
16.09.2016 18:00 19,3 C 64 % 1011,6 hPa 0,0 l/m 0,0 km/h W 12,3 C 19,3 C 0,0 km/h
16.09.2016 19:00 20,1 C 64 % 1011,6 hPa 0,0 l/m 0,0 km/h W-SW 13,1 C 20,1 C 0,0 km/h
16.09.2016 20:00 16,3 C 74 % 1011,9 hPa 0,0 l/m 0,0 km/h W-SW 11,7 C 16,3 C 0,0 km/h
16.09.2016 21:00 13,8 C 79 % 1012,3 hPa 0,0 l/m 0,0 km/h W-SW 10,2 C 13,8 C 0,0 km/h
16.09.2016 22:00 12,8 C 82 % 1012,2 hPa 0,0 l/m 0,0 km/h W-SW 9,8 C 12,8 C 0,0 km/h
16.09.2016 23:00 12,2 C 83 % 1012,4 hPa 0,0 l/m 0,0 km/h SO 9,4 C 12,2 C 0,0 km/h
17.09.2016 00:00 13,4 C 83 % 1012,8 hPa 0,0 l/m 4,5 km/h SO 10,6 C 13,4 C 2,5 km/h
17.09.2016 01:00 15,3 C 80 % 1012,6 hPa 0,0 l/m 0,0 km/h W-NW 11,9 C 15,3 C 0,0 km/h
17.09.2016 02:00 13,9 C 82 % 1012,3 hPa 0,0 l/m 0,0 km/h N 10,9 C 13,9 C 0,0 km/h
17.09.2016 03:00 13,6 C 82 % 1012,3 hPa 0,0 l/m 0,0 km/h S-SW 10,6 C 13,6 C 0,0 km/h
17.09.2016 04:00 13,8 C 82 % 1012,1 hPa 0,0 l/m 0,0 km/h SW 10,8 C 13,8 C 0,0 km/h
17.09.2016 05:00 14,4 C 79 % 1012,0 hPa 0,0 l/m 0,0 km/h S-SW 10,8 C 14,4 C 0,0 km/h
17.09.2016 06:00 13,8 C 81 % 1012,3 hPa 0,0 l/m 0,0 km/h N 10,6 C 13,8 C 0,0 km/h
17.09.2016 07:00 13,3 C 82 % 1012,4 hPa 0,0 l/m 0,0 km/h N-NO 10,3 C 13,3 C 0,0 km/h
17.09.2016 08:00 13,3 C 83 % 1012,8 hPa 0,0 l/m 0,0 km/h N-NO 10,5 C 13,3 C 0,0 km/h
17.09.2016 09:00 14,9 C 83 % 1012,8 hPa 0,0 l/m 0,0 km/h N-NO 12,0 C 14,9 C 0,0 km/h
17.09.2016 10:00 20,7 C 70 % 1013,1 hPa 0,0 l/m 0,0 km/h W-SW 15,0 C 20,7 C 0,0 km/h
17.09.2016 11:00 20,2 C 63 % 1013,1 hPa 0,0 l/m 3,9 km/h W-SW 12,9 C 20,2 C 2,2 km/h
17.09.2016 12:00 21,6 C 59 % 1012,8 hPa 0,0 l/m 13,0 km/h S-SW 13,2 C 19,6 C 7,2 km/h
17.09.2016 13:00 20,2 C 63 % 1012,6 hPa 0,0 l/m 16,8 km/h W-SW 12,9 C 17,1 C 9,4 km/h
17.09.2016 14:00 23,2 C 54 % 1012,3 hPa 0,0 l/m 8,4 km/h SW 13,4 C 22,6 C 4,7 km/h
17.09.2016 15:00 25,0 C 48 % 1012,5 hPa 0,0 l/m 23,3 km/h W 13,2 C 22,3 C 13,0 km/h
17.09.2016 16:00 25,2 C 47 % 1012,7 hPa 0,0 l/m 20,7 km/h W-SW 13,1 C 22,8 C 11,5 km/h
17.09.2016 17:00 20,4 C 58 % 1012,8 hPa 0,0 l/m 6,5 km/h S-SW 11,9 C 20,4 C 3,6 km/h
17.09.2016 18:00 19,1 C 63 % 1012,8 hPa 0,0 l/m 10,4 km/h W-NW 11,9 C 17,5 C 5,8 km/h
17.09.2016 19:00 17,3 C 72 % 1013,2 hPa 0,0 l/m 1,9 km/h N 12,2 C 17,3 C 1,1 km/h
Min-Datum _ 16.09.16 12.09.16 15.09.16 - 12.09.16 - 16.09.16 16.09.16 12.09.16
_ Min-Zeit 23:12 17:12 04:12 - 00:12 - 23:12 23:12 00:12
Minimum _ 12,2 C 25 % 1005,4 hPa - 0,0 km/h - 9,4 C 12,2 C 0,0 km/h
Max-Datum _ 12.09.16 12.09.16 12.09.16 15.09.16 17.09.16 - 12.09.16 12.09.16 17.09.16
_ Max-Zeit 17:12 04:12 10:12 23:12 15:12 - 13:12 17:12 15:12
Maximum _ 40,2 C 83 % 1015,3 hPa 0,5 l/m 23,3 km/h
W
- 19,4 C 40,2 C 13,0 km/h
W
Durchschnitt _ 20,8 C 69 % 1011,7 hPa #0,5 l/m 1,7 km/h W 14,1 C 20,7 C 1,0 km/h
www.sexauwetter.de